Time;durP1;ratioP1;P1;durP2;ratioP2;P2;SDS_P1;SDS_P2;PMS_P1;PMS_P2;Temp;Humidity;BMP_temperature;BMP_pressure;BME280_temperature;BME280_humidity;BME280_pressure;Samples;Min_cycle;Max_cycle;Signal;HPM_P1;HPM_P2
2022/08/08 00:01:53;;;;;;;6.77;3.20;;;21.20;53.50;;;;;;5113982;28;20194;-96
2022/08/08 00:04:30;;;;;;;9.40;3.97;;;21.20;53.70;;;;;;5092100;28;20211;-94
2022/08/08 00:07:36;;;;;;;7.03;3.23;;;21.10;53.80;;;;;;5088951;28;20203;-95
2022/08/08 00:10:10;;;;;;;11.83;4.50;;;21.10;54.10;;;;;;5089738;28;20207;-96
2022/08/08 00:12:44;;;;;;;3.80;2.87;;;21.10;53.60;;;;;;5106078;28;20199;-96
2022/08/08 00:15:17;;;;;;;5.83;3.00;;;21.00;53.80;;;;;;5102695;28;20207;-96
2022/08/08 00:17:52;;;;;;;5.57;2.90;;;21.00;53.40;;;;;;5107749;28;20298;-96
2022/08/08 00:20:26;;;;;;;10.03;3.80;;;21.00;53.20;;;;;;5097922;28;20233;-96
2022/08/08 00:25:53;;;;;;;7.60;3.57;;;20.90;53.60;;;;;;5111585;28;20237;-96
2022/08/08 00:31:27;;;;;;;7.27;3.30;;;20.90;54.00;;;;;;5109724;28;20213;-94
2022/08/08 00:37:24;;;;;;;9.50;3.77;;;20.80;54.50;;;;;;5093245;28;20257;-96
2022/08/08 00:40:35;;;;;;;6.37;3.17;;;20.80;54.30;;;;;;5108858;28;20270;-96
2022/08/08 00:43:45;;;;;;;7.77;3.67;;;20.70;54.50;;;;;;5115541;28;20206;-96
2022/08/08 00:50:21;;;;;;;6.73;3.43;;;20.60;54.60;;;;;;5098249;28;20210;-94
2022/08/08 00:53:09;;;;;;;6.57;2.93;;;20.60;54.90;;;;;;5113230;28;20202;-96
2022/08/08 00:56:28;;;;;;;6.13;3.37;;;20.60;55.00;;;;;;5113706;28;20595;-95
2022/08/08 01:03:04;;;;;;;10.00;3.77;;;20.40;55.00;;;;;;5094276;28;20242;-94
2022/08/08 01:06:14;;;;;;;5.40;3.13;;;20.40;55.30;;;;;;5069126;28;20207;-95
2022/08/08 01:09:35;;;;;;;4.40;3.07;;;20.40;55.40;;;;;;5095264;28;20253;-93
2022/08/08 01:12:55;;;;;;;6.70;3.20;;;20.30;55.60;;;;;;5092623;28;20211;-95
2022/08/08 01:15:59;;;;;;;5.80;3.50;;;20.20;55.80;;;;;;5095224;28;20187;-95
2022/08/08 01:19:14;;;;;;;7.70;3.53;;;20.30;55.90;;;;;;5101331;28;20421;-96
2022/08/08 01:22:29;;;;;;;7.80;4.10;;;20.20;55.80;;;;;;5085948;28;20222;-95
2022/08/08 01:25:32;;;;;;;11.03;3.57;;;20.20;55.80;;;;;;5114721;28;20250;-96
2022/08/08 01:28:30;;;;;;;6.33;3.53;;;20.10;55.80;;;;;;5084871;28;20629;-96
2022/08/08 01:31:47;;;;;;;8.23;3.80;;;20.10;55.60;;;;;;5091805;28;20184;-96
2022/08/08 01:34:51;;;;;;;13.23;5.47;;;20.10;55.60;;;;;;5070967;28;20204;-94
2022/08/08 01:37:59;;;;;;;9.07;4.50;;;20.20;56.20;;;;;;5076723;28;20187;-95
2022/08/08 01:40:32;;;;;;;4.60;2.90;;;20.20;56.60;;;;;;5112359;28;20214;-96
2022/08/08 01:43:08;;;;;;;5.73;3.47;;;20.10;55.70;;;;;;5088188;28;20201;-96
2022/08/08 01:45:58;;;;;;;5.23;3.27;;;20.20;55.90;;;;;;5082592;28;20195;-96
2022/08/08 01:48:37;;;;;;;6.33;3.70;;;20.10;56.40;;;;;;5085442;28;20217;-96
2022/08/08 01:51:31;;;;;;;5.07;3.37;;;20.10;55.90;;;;;;5091906;28;20723;-96
2022/08/08 01:54:08;;;;;;;10.53;4.20;;;20.00;56.30;;;;;;5096047;28;20216;-96
2022/08/08 01:56:51;;;;;;;12.37;4.57;;;20.10;56.20;;;;;;5082784;28;20198;-96
2022/08/08 01:59:57;;;;;;;5.03;3.20;;;20.00;56.40;;;;;;5096118;28;20238;-95
2022/08/08 02:02:42;;;;;;;11.17;4.30;;;20.00;56.60;;;;;;5110321;28;20197;-96
2022/08/08 02:05:32;;;;;;;7.63;3.60;;;20.00;56.60;;;;;;5096341;28;20233;-92
2022/08/08 02:08:14;;;;;;;8.10;4.33;;;20.00;56.60;;;;;;5084378;28;20222;-96
2022/08/08 02:10:59;;;;;;;7.50;3.97;;;20.00;56.80;;;;;;5086348;28;20200;-96
2022/08/08 02:13:46;;;;;;;12.07;5.47;;;20.00;56.20;;;;;;5094271;28;20187;-96
2022/08/08 02:16:24;;;;;;;7.63;4.23;;;19.90;56.60;;;;;;5088822;28;20557;-95
2022/08/08 02:19:00;;;;;;;7.07;4.27;;;19.90;56.70;;;;;;5086753;28;20315;-95
2022/08/08 02:24:38;;;;;;;10.27;5.00;;;19.90;56.20;;;;;;5079189;28;20252;-96
2022/08/08 02:27:26;;;;;;;8.60;5.07;;;19.90;56.90;;;;;;5090506;28;20195;-95
2022/08/08 02:30:07;;;;;;;8.67;4.33;;;19.90;56.90;;;;;;5111820;28;20195;-95
2022/08/08 02:33:19;;;;;;;9.73;4.80;;;19.90;57.30;;;;;;5114945;28;20178;-94
2022/08/08 02:35:56;;;;;;;8.60;4.00;;;19.90;57.40;;;;;;5083466;28;20202;-96
2022/08/08 02:38:36;;;;;;;13.43;5.60;;;19.90;57.00;;;;;;5095114;28;20210;-95
2022/08/08 02:41:35;;;;;;;8.37;4.43;;;19.80;57.30;;;;;;5090406;28;20195;-96
2022/08/08 02:44:33;;;;;;;7.33;4.50;;;19.80;57.60;;;;;;5059433;28;20228;-96
2022/08/08 02:47:42;;;;;;;8.20;4.33;;;19.80;57.60;;;;;;5071123;28;20198;-96
2022/08/08 02:50:39;;;;;;;8.27;4.40;;;19.80;57.60;;;;;;5076963;28;20729;-96
2022/08/08 02:53:30;;;;;;;8.70;4.53;;;19.70;57.60;;;;;;5086517;28;20940;-96
2022/08/08 02:56:37;;;;;;;8.87;4.27;;;19.70;57.60;;;;;;5077228;28;20206;-95
2022/08/08 02:59:40;;;;;;;9.57;4.30;;;19.70;57.80;;;;;;5014731;28;20605;-96
2022/08/08 03:02:38;;;;;;;8.60;4.30;;;19.60;57.70;;;;;;5093306;28;20190;-96
2022/08/08 03:05:50;;;;;;;5.77;4.07;;;19.60;57.80;;;;;;5097628;28;20245;-96
2022/08/08 03:12:29;;;;;;;7.67;4.63;;;19.60;57.50;;;;;;5043064;28;20201;-96
2022/08/08 03:15:37;;;;;;;7.93;5.50;;;19.60;58.30;;;;;;5040493;28;20398;-96
2022/08/08 03:18:16;;;;;;;10.13;5.10;;;19.50;58.10;;;;;;5052178;28;20210;-96
2022/08/08 03:20:46;;;;;;;6.33;4.07;;;19.50;58.00;;;;;;5082615;28;20230;-96
2022/08/08 03:23:23;;;;;;;10.70;5.77;;;19.50;57.70;;;;;;5083188;28;20211;-95
2022/08/08 03:25:56;;;;;;;9.70;5.13;;;19.50;58.10;;;;;;5103563;28;20198;-96
2022/08/08 03:28:33;;;;;;;10.53;5.70;;;19.50;58.00;;;;;;5104735;28;20219;-96
2022/08/08 03:33:49;;;;;;;8.93;5.37;;;19.40;58.20;;;;;;5083173;28;20245;-96
2022/08/08 03:36:18;;;;;;;6.80;4.13;;;19.40;58.00;;;;;;5103721;28;20252;-96
2022/08/08 03:38:55;;;;;;;8.30;5.77;;;19.40;58.10;;;;;;5098875;28;20222;-95
2022/08/08 03:41:46;;;;;;;10.37;5.63;;;19.30;58.40;;;;;;5089076;28;20209;-96
2022/08/08 03:44:21;;;;;;;10.13;5.10;;;19.30;58.80;;;;;;5088823;28;20268;-94
2022/08/08 03:46:50;;;;;;;7.63;4.93;;;19.20;58.50;;;;;;5088163;28;20216;-95
2022/08/08 03:49:20;;;;;;;9.63;6.00;;;19.20;58.30;;;;;;5097655;28;20243;-96
2022/08/08 03:51:55;;;;;;;9.60;5.93;;;19.20;58.50;;;;;;5088456;28;20210;-95
2022/08/08 03:54:42;;;;;;;12.93;6.70;;;19.20;58.90;;;;;;5088995;28;20240;-95
2022/08/08 03:57:18;;;;;;;8.20;5.63;;;19.10;59.30;;;;;;5089390;28;20206;-95
2022/08/08 03:59:53;;;;;;;9.53;5.97;;;19.10;58.90;;;;;;5091590;28;20226;-96
2022/08/08 04:02:22;;;;;;;9.43;6.13;;;19.10;59.30;;;;;;5103214;28;20201;-92
2022/08/08 04:04:53;;;;;;;10.07;6.23;;;19.10;58.90;;;;;;5109770;28;20223;-96
2022/08/08 04:07:25;;;;;;;13.03;6.77;;;19.10;59.30;;;;;;5109438;28;20202;-96
2022/08/08 04:10:05;;;;;;;8.10;5.73;;;19.10;59.30;;;;;;5109661;28;20549;-96
2022/08/08 04:12:42;;;;;;;9.50;5.60;;;19.00;59.50;;;;;;5104521;28;20193;-96
2022/08/08 04:15:19;;;;;;;10.03;6.13;;;19.00;59.50;;;;;;5112322;28;20209;-96
2022/08/08 04:17:53;;;;;;;11.23;6.60;;;19.00;59.60;;;;;;5111427;28;20202;-96
2022/08/08 04:20:23;;;;;;;13.40;7.03;;;19.00;59.60;;;;;;5112309;28;20226;-96
2022/08/08 04:22:51;;;;;;;9.20;6.43;;;19.00;59.60;;;;;;5085580;28;20255;-96
2022/08/08 04:25:25;;;;;;;11.40;6.53;;;19.00;59.70;;;;;;5097058;28;20206;-95
2022/08/08 04:27:58;;;;;;;10.70;6.93;;;19.00;60.00;;;;;;5102748;28;20215;-96
2022/08/08 04:30:26;;;;;;;12.53;6.53;;;19.00;59.80;;;;;;5086676;28;20208;-95
2022/08/08 04:33:02;;;;;;;9.27;6.00;;;19.00;59.80;;;;;;5084816;28;20217;-96
2022/08/08 04:35:30;;;;;;;8.80;6.33;;;19.00;59.80;;;;;;5099550;28;20627;-96
2022/08/08 04:37:58;;;;;;;14.23;7.57;;;19.00;60.00;;;;;;5101966;28;20205;-96
2022/08/08 04:40:30;;;;;;;10.67;6.67;;;19.00;60.00;;;;;;5082707;28;20231;-96
2022/08/08 04:43:03;;;;;;;12.13;6.57;;;19.00;60.40;;;;;;5081852;28;20200;-96
2022/08/08 04:45:31;;;;;;;10.27;6.73;;;19.00;60.50;;;;;;5088410;28;20198;-96
2022/08/08 04:48:02;;;;;;;14.60;5.83;;;19.00;60.30;;;;;;5094776;28;20201;-96
2022/08/08 04:50:32;;;;;;;12.27;6.87;;;19.00;60.40;;;;;;5104953;28;20205;-96
2022/08/08 04:53:00;;;;;;;10.57;6.53;;;19.10;60.80;;;;;;5103960;28;20729;-96
2022/08/08 04:55:29;;;;;;;10.53;6.40;;;19.10;60.50;;;;;;5106879;28;20291;-94
2022/08/08 04:57:56;;;;;;;11.77;6.73;;;19.00;60.50;;;;;;5094862;28;20203;-96
2022/08/08 05:00:26;;;;;;;11.83;6.63;;;19.10;60.50;;;;;;5095485;28;20303;-95
2022/08/08 05:02:53;;;;;;;9.40;5.73;;;19.10;60.70;;;;;;5103818;28;20218;-96
2022/08/08 05:05:21;;;;;;;11.30;5.80;;;19.10;60.10;;;;;;5119598;28;20197;-96
2022/08/08 05:07:48;;;;;;;10.63;5.23;;;19.10;59.70;;;;;;5081413;28;20225;-95
2022/08/08 05:10:18;;;;;;;9.70;6.03;;;19.10;59.70;;;;;;5081196;28;20203;-95
2022/08/08 05:12:48;;;;;;;12.73;6.90;;;19.10;60.10;;;;;;5094371;28;20613;-94
2022/08/08 05:15:19;;;;;;;9.10;5.50;;;19.20;60.50;;;;;;5112072;28;20207;-96
2022/08/08 05:17:51;;;;;;;10.27;5.70;;;19.20;59.80;;;;;;5112067;28;20221;-96
2022/08/08 05:20:26;;;;;;;8.57;5.73;;;19.20;59.80;;;;;;5103599;28;20610;-95
2022/08/08 05:22:55;;;;;;;8.10;5.40;;;19.20;60.30;;;;;;5095121;28;20671;-96
2022/08/08 05:25:22;;;;;;;9.67;6.17;;;19.30;61.10;;;;;;5098913;28;20206;-95
2022/08/08 05:27:52;;;;;;;12.77;6.87;;;19.30;60.50;;;;;;5100914;28;20198;-95
2022/08/08 05:30:20;;;;;;;10.60;6.73;;;19.30;60.90;;;;;;5095594;28;20230;-94
2022/08/08 05:32:48;;;;;;;10.43;6.50;;;19.40;61.00;;;;;;5089132;28;20264;-95
2022/08/08 05:35:19;;;;;;;10.57;6.40;;;19.40;61.20;;;;;;5096764;28;20202;-95
2022/08/08 05:37:52;;;;;;;8.73;5.90;;;19.40;61.40;;;;;;5093473;28;20209;-94
2022/08/08 05:40:19;;;;;;;11.97;6.70;;;19.40;61.10;;;;;;5109140;28;20224;-93
2022/08/08 05:42:55;;;;;;;12.03;6.47;;;19.50;61.00;;;;;;5103263;28;20229;-94
2022/08/08 05:45:25;;;;;;;9.47;5.90;;;19.50;61.40;;;;;;5105721;28;20193;-94
2022/08/08 05:47:56;;;;;;;8.40;5.87;;;19.50;61.60;;;;;;5092859;28;20248;-92
2022/08/08 05:50:28;;;;;;;8.47;5.47;;;19.60;62.10;;;;;;5088707;28;20203;-92
2022/08/08 05:53:01;;;;;;;9.27;5.07;;;19.60;61.90;;;;;;5081539;28;20207;-93
2022/08/08 05:55:29;;;;;;;8.90;5.67;;;19.60;61.70;;;;;;5088208;28;20194;-95
2022/08/08 05:58:01;;;;;;;11.13;5.90;;;19.60;61.80;;;;;;5081367;28;20203;-93
2022/08/08 06:00:39;;;;;;;9.23;5.60;;;19.70;62.20;;;;;;5083113;28;20227;-95
2022/08/08 06:03:14;;;;;;;10.10;5.87;;;19.70;62.40;;;;;;5093461;28;20264;-94
2022/08/08 06:05:48;;;;;;;10.20;6.00;;;19.80;62.20;;;;;;5084761;28;20198;-94
2022/08/08 06:08:19;;;;;;;11.67;5.70;;;19.80;62.60;;;;;;5074016;28;20198;-95
2022/08/08 06:10:50;;;;;;;9.40;5.50;;;19.80;62.10;;;;;;5090941;28;20241;-91
2022/08/08 06:13:29;;;;;;;10.30;6.13;;;19.90;62.20;;;;;;5079280;28;20218;-96
2022/08/08 06:15:58;;;;;;;7.30;5.23;;;19.90;62.50;;;;;;5076326;28;20631;-96
2022/08/08 06:18:28;;;;;;;10.53;5.20;;;20.00;62.30;;;;;;5096762;28;20230;-96
2022/08/08 06:21:05;;;;;;;8.33;5.10;;;20.00;62.00;;;;;;5098670;28;20260;-94
2022/08/08 06:23:34;;;;;;;7.17;4.47;;;20.10;62.20;;;;;;5100553;28;20195;-95
2022/08/08 06:26:07;;;;;;;6.60;4.37;;;20.10;62.10;;;;;;5098609;28;20237;-96
2022/08/08 06:28:48;;;;;;;6.70;4.33;;;20.20;62.10;;;;;;5098925;28;20231;-95
2022/08/08 06:31:23;;;;;;;8.57;4.50;;;20.30;61.90;;;;;;5092967;28;20195;-96
2022/08/08 06:33:59;;;;;;;7.73;4.33;;;20.30;62.00;;;;;;5078169;28;20187;-96
2022/08/08 06:36:36;;;;;;;10.57;4.83;;;20.40;61.90;;;;;;5073136;28;20190;-96
2022/08/08 06:39:05;;;;;;;8.53;4.47;;;20.40;61.70;;;;;;5082022;28;20542;-96
2022/08/08 06:41:35;;;;;;;8.07;4.20;;;20.50;61.20;;;;;;5084784;28;20227;-96
2022/08/08 06:44:06;;;;;;;7.10;3.87;;;20.50;61.20;;;;;;5102096;28;20278;-96
2022/08/08 06:46:34;;;;;;;7.33;3.47;;;20.70;61.60;;;;;;5097255;28;20190;-92
2022/08/08 06:49:01;;;;;;;5.23;3.53;;;20.70;60.80;;;;;;5101377;28;20198;-96
2022/08/08 06:51:28;;;;;;;6.10;3.83;;;20.70;61.10;;;;;;5089071;28;20208;-95
2022/08/08 06:54:01;;;;;;;7.00;3.60;;;20.80;61.30;;;;;;5077884;28;20294;-95
2022/08/08 06:56:30;;;;;;;6.87;4.00;;;20.90;61.60;;;;;;5083217;28;20192;-96
2022/08/08 06:59:01;;;;;;;5.60;3.60;;;20.90;61.20;;;;;;5077852;28;20219;-96
2022/08/08 07:01:39;;;;;;;7.60;4.13;;;21.00;61.00;;;;;;5079721;28;20195;-95
2022/08/08 07:04:11;;;;;;;9.53;3.90;;;21.10;61.30;;;;;;5082204;28;20655;-95
2022/08/08 07:06:43;;;;;;;6.07;4.07;;;21.10;61.10;;;;;;5082128;28;20207;-96
2022/08/08 07:09:19;;;;;;;9.00;4.17;;;21.20;61.30;;;;;;5084018;28;20214;-96
2022/08/08 07:11:50;;;;;;;8.50;3.93;;;21.30;61.00;;;;;;5082673;28;20188;-96
2022/08/08 07:14:27;;;;;;;5.70;3.43;;;21.30;60.40;;;;;;5102573;28;20197;-95
2022/08/08 07:17:04;;;;;;;8.17;3.60;;;21.40;60.30;;;;;;5104104;28;20198;-96
2022/08/08 07:19:43;;;;;;;10.13;3.97;;;21.40;60.00;;;;;;5107500;28;20219;-95
2022/08/08 07:22:16;;;;;;;5.20;3.07;;;21.50;60.00;;;;;;5105828;28;20230;-96
2022/08/08 07:24:51;;;;;;;6.13;3.77;;;21.60;59.80;;;;;;5103266;28;20218;-96
2022/08/08 07:27:25;;;;;;;6.70;3.87;;;21.60;59.80;;;;;;5106392;28;20221;-95
2022/08/08 07:29:54;;;;;;;9.87;4.20;;;21.70;59.90;;;;;;5105888;28;20201;-96
2022/08/08 07:32:29;;;;;;;6.37;3.33;;;21.80;59.90;;;;;;5102480;28;20206;-96
2022/08/08 07:38:07;;;;;;;6.43;3.23;;;21.90;60.10;;;;;;5097308;28;20203;-94
2022/08/08 07:40:49;;;;;;;7.63;3.87;;;22.00;60.00;;;;;;5093572;28;20226;-94
2022/08/08 07:43:23;;;;;;;5.00;3.20;;;22.10;60.10;;;;;;5092554;28;20236;-94
2022/08/08 07:45:56;;;;;;;8.17;4.10;;;22.10;59.90;;;;;;5083673;28;20218;-93
2022/08/08 07:48:27;;;;;;;13.00;3.87;;;22.20;60.00;;;;;;5074603;28;20206;-94
2022/08/08 07:50:57;;;;;;;7.03;3.67;;;22.30;59.80;;;;;;5078915;28;20256;-93
2022/08/08 07:53:37;;;;;;;6.57;2.93;;;22.40;59.70;;;;;;5103396;28;20203;-94
2022/08/08 07:56:19;;;;;;;10.17;3.87;;;22.40;59.50;;;;;;5116373;28;20187;-96
2022/08/08 07:58:49;;;;;;;11.57;4.67;;;22.40;59.30;;;;;;5111579;28;20228;-94
2022/08/08 08:01:42;;;;;;;12.07;3.83;;;22.50;59.30;;;;;;5100499;28;20262;-94
2022/08/08 08:04:16;;;;;;;5.43;2.87;;;22.60;59.10;;;;;;5086557;28;20219;-96
2022/08/08 08:06:45;;;;;;;8.63;3.73;;;22.60;59.00;;;;;;5085557;28;20206;-95
2022/08/08 08:09:24;;;;;;;10.30;3.87;;;22.70;59.00;;;;;;5079911;28;20207;-96
2022/08/08 08:11:59;;;;;;;5.53;2.63;;;22.80;59.10;;;;;;5095575;28;20207;-96
2022/08/08 08:14:53;;;;;;;4.83;2.33;;;22.90;59.00;;;;;;5103199;28;20704;-96
2022/08/08 08:17:22;;;;;;;7.53;3.47;;;22.90;58.90;;;;;;5083650;28;20728;-96
2022/08/08 08:20:01;;;;;;;7.03;3.23;;;23.00;58.90;;;;;;5084302;28;20225;-96
2022/08/08 08:22:29;;;;;;;7.13;3.30;;;23.10;58.80;;;;;;5098859;28;20209;-93
2022/08/08 08:25:04;;;;;;;7.03;2.97;;;23.20;58.70;;;;;;5087705;28;20656;-95
2022/08/08 08:27:39;;;;;;;9.33;3.37;;;23.20;58.30;;;;;;5075905;28;20643;-94
2022/08/08 08:30:11;;;;;;;9.33;2.63;;;23.30;58.50;;;;;;5080067;28;20202;-92
2022/08/08 08:32:38;;;;;;;6.90;3.37;;;23.40;58.50;;;;;;5075906;28;20202;-94
2022/08/08 08:35:16;;;;;;;10.40;3.97;;;23.40;58.40;;;;;;5077825;28;20220;-93
2022/08/08 08:37:55;;;;;;;9.03;3.97;;;23.50;58.00;;;;;;5085972;28;20201;-96
2022/08/08 08:40:23;;;;;;;13.87;5.57;;;23.60;57.80;;;;;;5116075;28;20214;-94
2022/08/08 08:42:54;;;;;;;5.53;2.80;;;23.70;58.10;;;;;;5103363;28;20203;-95
2022/08/08 08:45:22;;;;;;;6.90;3.00;;;23.80;57.90;;;;;;5083242;28;20205;-93
2022/08/08 08:47:52;;;;;;;8.37;3.83;;;23.80;58.00;;;;;;5085710;28;20286;-96
2022/08/08 08:50:35;;;;;;;11.27;3.00;;;23.90;57.80;;;;;;5093625;28;20206;-94
2022/08/08 08:53:07;;;;;;;6.20;2.47;;;24.00;57.50;;;;;;5092386;28;20256;-94
2022/08/08 08:55:38;;;;;;;10.90;3.87;;;24.10;57.60;;;;;;5089334;28;20198;-96
2022/08/08 08:58:11;;;;;;;11.67;3.57;;;24.20;57.50;;;;;;5175954;22;20310;-93
2022/08/08 09:00:38;;;;;;;4.40;2.50;;;24.30;57.50;;;;;;5091400;28;20830;-95
2022/08/08 09:03:19;;;;;;;6.00;2.70;;;24.40;57.60;;;;;;5098684;28;20207;-96
2022/08/08 09:05:49;;;;;;;6.10;2.80;;;24.60;57.30;;;;;;5096019;28;20794;-96
2022/08/08 09:08:18;;;;;;;9.27;3.93;;;24.80;57.40;;;;;;5096802;28;20203;-96
2022/08/08 09:10:45;;;;;;;12.47;5.60;;;25.00;57.40;;;;;;5094169;28;20207;-94
2022/08/08 09:13:15;;;;;;;13.37;5.67;;;25.20;57.30;;;;;;5093526;28;20203;-95
2022/08/08 09:15:43;;;;;;;8.17;3.30;;;25.40;56.90;;;;;;5093139;28;20673;-95
2022/08/08 09:18:12;;;;;;;6.10;2.70;;;25.70;56.70;;;;;;5094207;28;20264;-95
2022/08/08 09:20:47;;;;;;;5.27;2.50;;;25.90;56.40;;;;;;5096991;28;20215;-95
2022/08/08 09:23:24;;;;;;;7.20;3.30;;;26.10;55.90;;;;;;5095475;28;20236;-96
2022/08/08 09:25:55;;;;;;;2.33;1.60;;;26.40;55.30;;;;;;5095168;28;20278;-96
2022/08/08 09:28:28;;;;;;;10.20;3.77;;;26.70;55.50;;;;;;5097195;28;20206;-96
2022/08/08 09:31:08;;;;;;;6.70;2.97;;;26.90;54.80;;;;;;5092306;28;20195;-93
2022/08/08 09:33:37;;;;;;;6.13;3.33;;;27.10;54.20;;;;;;5090940;28;20259;-95
2022/08/08 09:36:21;;;;;;;5.07;2.57;;;27.40;54.30;;;;;;5095420;28;20226;-96
2022/08/08 09:42:02;;;;;;;8.57;2.93;;;27.80;52.90;;;;;;5087188;28;20889;-96
2022/08/08 09:44:46;;;;;;;5.40;2.50;;;28.00;52.60;;;;;;5093630;28;20203;-95
2022/08/08 09:47:15;;;;;;;4.87;2.73;;;28.20;52.70;;;;;;5083423;28;20203;-95
2022/08/08 09:49:45;;;;;;;8.70;3.70;;;28.40;52.80;;;;;;5101670;28;20232;-95
2022/08/08 09:52:19;;;;;;;4.47;2.70;;;28.60;52.40;;;;;;5110037;28;20195;-92
2022/08/08 09:54:50;;;;;;;5.37;2.90;;;28.70;51.40;;;;;;5090020;28;20221;-95
2022/08/08 09:58:00;;;;;;;9.13;4.57;;;28.90;51.30;;;;;;5100797;28;20222;-96
2022/08/08 10:03:43;;;;;;;4.87;2.00;;;29.30;50.90;;;;;;5111962;22;20227;-96
2022/08/08 10:06:15;;;;;;;31.70;14.77;;;29.50;50.40;;;;;;5119306;22;20250;-94
2022/08/08 10:08:46;;;;;;;2.87;1.70;;;29.60;50.50;;;;;;5091325;28;20717;-95
2022/08/08 10:14:33;;;;;;;5.57;2.93;;;29.90;49.90;;;;;;5052998;22;20609;-94
2022/08/08 10:17:03;;;;;;;8.88;4.07;;;30.10;49.20;;;;;;5058569;28;20207;-95
2022/08/08 10:19:37;;;;;;;6.03;2.92;;;30.20;49.80;;;;;;5069936;28;20462;-95
2022/08/08 10:22:27;;;;;;;5.10;2.08;;;30.40;48.70;;;;;;5101282;27;20594;-95
2022/08/08 10:25:00;;;;;;;7.13;2.47;;;30.60;48.30;;;;;;5116678;28;20192;-95
2022/08/08 10:27:29;;;;;;;5.72;2.55;;;30.70;48.50;;;;;;5114337;28;20174;-96
2022/08/08 10:30:01;;;;;;;6.30;2.83;;;30.80;48.40;;;;;;5113182;28;20259;-92
2022/08/08 10:32:35;;;;;;;4.47;2.58;;;30.80;48.10;;;;;;5112244;28;20640;-94
2022/08/08 10:35:06;;;;;;;3.55;2.35;;;30.80;48.10;;;;;;5111059;28;20263;-96
2022/08/08 10:37:36;;;;;;;8.65;3.85;;;30.90;47.90;;;;;;5128962;28;20249;-94
2022/08/08 10:40:20;;;;;;;2.50;1.77;;;30.90;47.80;;;;;;5125085;28;20263;-90
2022/08/08 10:42:58;;;;;;;4.18;2.35;;;30.90;47.20;;;;;;5076961;28;20455;-91
2022/08/08 10:45:28;;;;;;;6.68;2.85;;;31.00;46.70;;;;;;5070373;28;20279;-95
2022/08/08 10:47:57;;;;;;;7.15;2.78;;;31.00;47.30;;;;;;5068952;28;20191;-94
2022/08/08 10:50:34;;;;;;;5.22;2.83;;;31.00;47.30;;;;;;5071159;28;20306;-94
2022/08/08 10:53:07;;;;;;;6.53;3.47;;;30.90;46.80;;;;;;5118129;28;20186;-96
2022/08/08 10:55:41;;;;;;;4.22;1.90;;;30.90;47.10;;;;;;5115219;28;20226;-95
2022/08/08 10:58:09;;;;;;;5.93;2.78;;;30.80;47.20;;;;;;5097458;28;20218;-95
2022/08/08 11:00:42;;;;;;;6.47;2.97;;;30.80;47.30;;;;;;5087836;28;20218;-93
2022/08/08 11:03:15;;;;;;;5.53;3.00;;;30.80;47.00;;;;;;5086433;28;20280;-94
2022/08/08 11:05:47;;;;;;;5.40;3.10;;;30.80;47.50;;;;;;5085574;28;20260;-93
2022/08/08 11:08:27;;;;;;;10.80;4.00;;;30.80;47.40;;;;;;5068924;28;20211;-93
2022/08/08 11:11:06;;;;;;;5.30;2.53;;;30.90;46.80;;;;;;5085842;28;20961;-94
2022/08/08 11:13:40;;;;;;;5.47;2.97;;;30.90;46.60;;;;;;5086494;28;20248;-94
2022/08/08 11:16:09;;;;;;;5.47;2.80;;;30.90;46.70;;;;;;5086417;28;20203;-94
2022/08/08 11:18:37;;;;;;;5.88;2.58;;;30.90;47.20;;;;;;5087907;28;20233;-93
2022/08/08 11:21:06;;;;;;;8.13;3.05;;;30.90;46.90;;;;;;5085926;28;20709;-94
2022/08/08 11:23:53;;;;;;;5.30;2.50;;;31.00;46.70;;;;;;5081262;28;20214;-95
2022/08/08 11:26:23;;;;;;;8.48;3.20;;;31.00;45.90;;;;;;5086640;28;20274;-95
2022/08/08 11:28:52;;;;;;;6.32;2.30;;;31.00;46.60;;;;;;5086738;28;20206;-94
2022/08/08 11:31:24;;;;;;;5.85;2.95;;;31.00;46.60;;;;;;5086915;28;20597;-95
2022/08/08 11:33:52;;;;;;;8.47;3.00;;;31.00;46.40;;;;;;5072445;28;20249;-93
2022/08/08 11:36:21;;;;;;;4.10;2.25;;;30.90;46.60;;;;;;5054559;28;20669;-95
2022/08/08 11:38:49;;;;;;;8.47;3.03;;;30.90;46.60;;;;;;5034826;28;20232;-94
2022/08/08 11:41:20;;;;;;;6.38;3.03;;;30.80;46.80;;;;;;5033227;28;20233;-94
2022/08/08 11:43:48;;;;;;;5.50;2.70;;;30.70;46.70;;;;;;5033126;28;20232;-96
2022/08/08 11:46:16;;;;;;;7.00;3.17;;;30.70;46.90;;;;;;5033510;28;20204;-96
2022/08/08 11:48:46;;;;;;;11.70;3.58;;;30.60;46.80;;;;;;5033205;28;20243;-94
2022/08/08 11:51:14;;;;;;;7.70;2.40;;;30.60;46.80;;;;;;5032845;28;20201;-95
2022/08/08 11:53:43;;;;;;;3.58;2.03;;;30.60;46.80;;;;;;5068740;28;20207;-94
2022/08/08 11:56:33;;;;;;;6.93;3.23;;;30.60;46.30;;;;;;5074452;28;20253;-95
2022/08/08 11:59:47;;;;;;;6.87;3.43;;;30.60;46.10;;;;;;5059279;28;20235;-92
2022/08/08 12:02:14;;;;;;;7.40;3.33;;;30.60;45.90;;;;;;5049655;28;20706;-95
2022/08/08 12:04:43;;;;;;;7.28;3.00;;;30.60;46.30;;;;;;5049410;28;20193;-96
2022/08/08 12:07:11;;;;;;;9.47;3.23;;;30.60;45.80;;;;;;5049951;28;20285;-94
2022/08/08 12:10:04;;;;;;;6.00;2.35;;;30.60;46.10;;;;;;5052544;28;20653;-96
2022/08/08 12:12:42;;;;;;;7.18;3.78;;;30.60;45.90;;;;;;5051479;28;20283;-93
2022/08/08 12:15:10;;;;;;;4.28;1.92;;;30.70;45.80;;;;;;5052905;28;20235;-94
2022/08/08 12:17:42;;;;;;;10.85;4.72;;;30.80;46.40;;;;;;5053579;28;20204;-96
2022/08/08 12:20:10;;;;;;;4.22;2.13;;;30.90;45.70;;;;;;5050232;28;20211;-94
2022/08/08 12:25:33;;;;;;;2.55;1.63;;;31.10;45.20;;;;;;5043192;28;20204;-91
2022/08/08 12:28:19;;;;;;;6.00;2.63;;;31.30;45.30;;;;;;5052362;28;20231;-93
2022/08/08 12:30:47;;;;;;;5.70;2.80;;;31.40;44.50;;;;;;5112707;22;20293;-95
2022/08/08 12:33:19;;;;;;;6.13;2.78;;;31.50;44.90;;;;;;5051686;28;20211;-96
2022/08/08 12:35:55;;;;;;;6.05;3.08;;;31.50;44.60;;;;;;5055157;28;20208;-96
2022/08/08 12:41:12;;;;;;;4.00;2.35;;;31.60;45.10;;;;;;5024815;28;20259;-95
2022/08/08 12:43:50;;;;;;;5.63;2.58;;;31.60;44.40;;;;;;5052541;28;20215;-96
2022/08/08 12:46:54;;;;;;;5.00;2.60;;;31.60;44.70;;;;;;5055945;28;20197;-94
2022/08/08 12:49:28;;;;;;;6.38;3.08;;;31.70;44.40;;;;;;5048596;28;20203;-94
2022/08/08 12:51:56;;;;;;;7.50;3.10;;;31.70;43.80;;;;;;5051660;28;20200;-95
2022/08/08 12:54:28;;;;;;;5.78;2.72;;;31.80;44.60;;;;;;5050915;28;20196;-96
2022/08/08 12:56:55;;;;;;;5.00;2.25;;;31.80;44.00;;;;;;5051374;28;20762;-94
2022/08/08 12:59:31;;;;;;;5.18;2.60;;;31.90;43.90;;;;;;5041037;28;20197;-95
2022/08/08 13:04:50;;;;;;;7.32;3.38;;;32.10;43.80;;;;;;5065905;28;20211;-95
2022/08/08 13:10:19;;;;;;;3.88;2.25;;;32.20;43.30;;;;;;5055901;28;20200;-96
2022/08/08 13:15:35;;;;;;;8.25;3.33;;;32.40;42.80;;;;;;5078792;22;20277;-92
2022/08/08 13:18:05;;;;;;;3.58;2.22;;;32.50;42.90;;;;;;5076362;28;20866;-95
2022/08/08 13:20:43;;;;;;;5.60;2.90;;;32.50;42.80;;;;;;5077196;28;20206;-95
2022/08/08 13:23:17;;;;;;;3.25;1.60;;;32.60;42.40;;;;;;5079014;28;20294;-96
2022/08/08 13:25:47;;;;;;;8.38;1.95;;;32.70;41.70;;;;;;5079164;28;20197;-96
2022/08/08 13:28:17;;;;;;;4.80;2.28;;;32.70;42.00;;;;;;5077659;28;20202;-96
2022/08/08 13:30:48;;;;;;;7.20;2.28;;;32.80;41.70;;;;;;5077778;28;20298;-93
2022/08/08 13:38:30;;;;;;;3.55;1.95;;;33.00;41.50;;;;;;5072923;28;20210;-94
2022/08/08 13:40:59;;;;;;;4.50;2.15;;;33.00;41.10;;;;;;5073023;28;20215;-95
2022/08/08 13:43:27;;;;;;;5.07;2.20;;;33.10;41.00;;;;;;5071398;28;20268;-96
2022/08/08 13:46:07;;;;;;;4.68;2.33;;;33.20;41.00;;;;;;5070347;28;20195;-96
2022/08/08 13:48:44;;;;;;;4.88;2.53;;;33.20;40.60;;;;;;5069818;28;20210;-96
2022/08/08 13:54:03;;;;;;;7.50;3.22;;;33.30;39.60;;;;;;5072948;22;20252;-96
2022/08/08 13:56:35;;;;;;;6.65;3.35;;;33.40;40.30;;;;;;5069869;28;20220;-94
2022/08/08 13:59:04;;;;;;;6.78;2.97;;;33.40;40.30;;;;;;5089257;28;20226;-94
2022/08/08 14:01:33;;;;;;;9.15;4.55;;;33.40;40.30;;;;;;5067404;28;20638;-96
2022/08/08 14:04:05;;;;;;;6.47;3.13;;;33.50;40.10;;;;;;5064345;28;20215;-91
2022/08/08 14:06:32;;;;;;;6.70;3.38;;;33.50;40.00;;;;;;5066505;28;20195;-95
2022/08/08 14:11:41;;;;;;;4.68;2.47;;;33.50;39.90;;;;;;5065428;28;20506;-94
2022/08/08 14:14:08;;;;;;;6.57;2.90;;;33.60;39.80;;;;;;5069403;28;20642;-94
2022/08/08 14:16:48;;;;;;;7.13;3.03;;;33.60;39.60;;;;;;5060311;28;20219;-96
2022/08/08 14:19:16;;;;;;;6.10;3.30;;;33.60;38.70;;;;;;5065887;28;20213;-93
2022/08/08 14:21:44;;;;;;;7.00;3.60;;;33.60;39.40;;;;;;5066175;28;20239;-94
2022/08/08 14:24:39;;;;;;;4.78;2.50;;;33.60;39.10;;;;;;5066355;28;20207;-92
2022/08/08 14:27:17;;;;;;;4.45;2.45;;;33.70;39.20;;;;;;5069203;28;20207;-93
2022/08/08 14:29:54;;;;;;;6.25;3.05;;;33.70;38.20;;;;;;5058137;28;20208;-95
2022/08/08 14:32:22;;;;;;;6.38;2.95;;;33.70;38.10;;;;;;5048083;28;20421;-93
2022/08/08 14:34:55;;;;;;;5.38;2.47;;;33.70;38.50;;;;;;5063801;28;20229;-93
2022/08/08 14:37:24;;;;;;;7.22;3.17;;;33.70;38.10;;;;;;5067681;28;20264;-90
2022/08/08 14:39:56;;;;;;;7.38;3.28;;;33.70;38.00;;;;;;5066714;28;20308;-94